Kolobrzeg, Poland
Current Conditions -  °F | °C
As of 3:50 PM on Monday 24 Nov 2014 (Local Time) from EDAH Reporting Station
Broken Clouds Broken Clouds  
Wind Chill: 42°   Ceiling: 4000
Heat Index: 46°   Visibility: 6mi
Dew Point: 45°   Wind: 8mph
Humidity: 93%   Direction: 240°WSW
Pressure: 30.12"   Gusts: NA
Location:  54.19°N, 15.57°E
Report Text: EDAH 241350Z 24007KT 9000 FEW010 BKN040 08/07 Q1020
Loading
Personal Weather Stations






























Interactive Weather Map New forecast layout! Learn more

10-Day Weather Forecast

Advertisements
Track Severe Weather on mobile